createdAt,value
2019-04-01T00:00:33.943Z,46.33
2019-04-01T00:03:02.432Z,46.40
2019-04-01T00:05:30.887Z,46.31
2019-04-01T00:07:59.378Z,46.30
2019-04-01T00:10:27.825Z,46.43
2019-04-01T00:12:56.294Z,46.56
2019-04-01T00:15:24.746Z,46.72
2019-04-01T00:17:53.216Z,46.91
2019-04-01T00:20:21.682Z,47.04
2019-04-01T00:22:50.282Z,47.03
2019-04-01T00:25:18.787Z,47.13
2019-04-01T00:27:47.515Z,47.24
2019-04-01T00:30:15.977Z,47.33
2019-04-01T00:32:44.527Z,47.44
2019-04-01T00:35:12.998Z,47.40
2019-04-01T00:37:41.467Z,47.55
2019-04-01T00:40:09.982Z,47.59
2019-04-01T00:42:52.833Z,47.69
2019-04-01T00:45:22.454Z,47.71
2019-04-01T00:47:50.929Z,47.93
2019-04-01T00:50:19.400Z,48.05
2019-04-01T00:52:47.878Z,48.12
2019-04-01T00:55:16.668Z,48.14
2019-04-01T00:57:45.139Z,48.11
2019-04-01T01:00:14.469Z,48.20
2019-04-01T01:02:42.941Z,48.41
2019-04-01T01:05:11.681Z,48.45
2019-04-01T01:07:40.154Z,48.44
2019-04-01T01:10:08.777Z,48.54
2019-04-01T01:12:37.257Z,48.71
2019-04-01T01:15:05.820Z,48.75
2019-04-01T01:17:34.299Z,48.66
2019-04-01T01:20:02.764Z,48.79
2019-04-01T01:22:31.216Z,49.01
2019-04-01T01:24:59.804Z,49.19
2019-04-01T01:27:28.254Z,49.22
2019-04-01T01:29:56.701Z,49.10
2019-04-01T01:32:25.179Z,49.19
2019-04-01T01:34:53.658Z,49.46
2019-04-01T01:37:22.391Z,49.71
2019-04-01T01:39:50.835Z,49.84
2019-04-01T01:42:19.303Z,49.90
2019-04-01T01:44:47.786Z,49.99
2019-04-01T01:47:16.262Z,50.06
2019-04-01T01:49:44.708Z,50.14
2019-04-01T01:52:13.167Z,50.29
2019-04-01T01:54:41.642Z,50.17
2019-04-01T01:57:10.359Z,50.15
2019-04-01T01:59:38.818Z,50.27
2019-04-01T02:02:08.076Z,50.25
2019-04-01T02:04:36.548Z,50.04
2019-04-01T02:07:05.000Z,49.91
2019-04-01T02:09:33.505Z,49.97
2019-04-01T02:12:02.100Z,50.03
2019-04-01T02:14:30.654Z,50.08
2019-04-01T02:16:59.116Z,50.06
2019-04-01T02:19:27.607Z,50.17
2019-04-01T02:21:56.446Z,50.07
2019-04-01T02:24:24.901Z,50.01
2019-04-01T02:26:53.356Z,50.10
2019-04-01T02:29:21.862Z,50.20
2019-04-01T02:31:50.348Z,50.43
2019-04-01T02:34:18.801Z,50.54
2019-04-01T02:36:47.242Z,50.70
2019-04-01T02:39:15.709Z,50.78
2019-04-01T02:41:44.169Z,50.85
2019-04-01T02:44:12.634Z,50.77
2019-04-01T02:46:41.097Z,50.82
2019-04-01T02:49:09.588Z,50.73
2019-04-01T02:51:38.045Z,50.58
2019-04-01T02:54:06.807Z,50.64
2019-04-01T02:56:35.324Z,50.87
2019-04-01T02:59:03.783Z,51.03
2019-04-01T03:01:32.237Z,51.11
2019-04-01T03:04:00.686Z,51.13
2019-04-01T03:06:29.233Z,51.21
2019-04-01T03:08:57.697Z,51.34
2019-04-01T03:11:26.197Z,51.46
2019-04-01T03:13:54.674Z,51.56
2019-04-01T03:16:23.198Z,51.58
2019-04-01T03:18:51.785Z,51.59
2019-04-01T03:21:20.257Z,51.65
2019-04-01T03:23:48.712Z,51.59
2019-04-01T03:26:17.517Z,51.64
2019-04-01T03:28:46.000Z,51.62
2019-04-01T03:31:14.482Z,51.40
2019-04-01T03:33:42.958Z,51.48
2019-04-01T03:36:11.405Z,51.55
2019-04-01T03:38:40.171Z,51.64
2019-04-01T03:41:08.747Z,51.71
2019-04-01T03:43:37.206Z,51.81
2019-04-01T03:46:05.727Z,51.81
2019-04-01T03:48:34.513Z,51.84
2019-04-01T03:51:02.962Z,51.86
2019-04-01T03:53:31.411Z,51.91
2019-04-01T03:55:59.881Z,52.05
2019-04-01T03:58:28.348Z,52.02
2019-04-01T04:00:56.826Z,52.02
2019-04-01T04:03:25.321Z,52.00
2019-04-01T04:05:53.775Z,52.05
2019-04-01T04:08:22.202Z,52.37
2019-04-01T04:10:50.690Z,52.43
2019-04-01T04:13:19.123Z,52.62
2019-04-01T04:15:47.896Z,52.71
2019-04-01T04:18:16.362Z,52.75
2019-04-01T04:20:44.828Z,53.00
2019-04-01T04:23:13.287Z,53.03
2019-04-01T04:25:41.792Z,53.07
2019-04-01T04:28:10.258Z,53.03
2019-04-01T04:30:38.677Z,53.10
2019-04-01T04:33:07.160Z,53.00
2019-04-01T04:35:35.616Z,52.87
2019-04-01T04:38:04.088Z,52.86
2019-04-01T04:40:32.539Z,53.04
2019-04-01T04:43:01.043Z,53.21
2019-04-01T04:45:29.506Z,53.29
2019-04-01T04:47:57.980Z,53.32
2019-04-01T04:50:26.441Z,53.46
2019-04-01T04:52:54.918Z,53.50
2019-04-01T04:55:23.372Z,53.32
2019-04-01T04:57:52.064Z,53.35
2019-04-01T05:00:20.567Z,53.57
2019-04-01T05:02:49.046Z,53.60
2019-04-01T05:05:18.025Z,53.63
2019-04-01T05:07:46.486Z,53.81
2019-04-01T05:10:14.936Z,53.79
2019-04-01T05:12:43.382Z,53.90
2019-04-01T05:15:11.859Z,53.96
2019-04-01T05:17:40.311Z,53.88
2019-04-01T05:20:09.047Z,53.78
2019-04-01T05:22:37.579Z,53.67
2019-04-01T05:25:06.106Z,53.77
2019-04-01T05:27:34.589Z,53.95
2019-04-01T05:30:04.220Z,53.93
2019-04-01T05:32:33.315Z,53.84
2019-04-01T05:35:01.780Z,53.83
2019-04-01T05:37:30.988Z,53.86
2019-04-01T05:39:59.476Z,53.91
2019-04-01T05:42:27.951Z,53.70
2019-04-01T05:44:56.448Z,53.82
2019-04-01T05:47:30.311Z,53.72
2019-04-01T05:49:58.803Z,53.70
2019-04-01T05:52:27.264Z,53.66
2019-04-01T05:54:55.723Z,53.70
2019-04-01T05:57:24.270Z,53.49
2019-04-01T05:59:52.740Z,53.38
2019-04-01T06:02:21.295Z,53.29
2019-04-01T06:04:49.740Z,53.13
2019-04-01T06:07:18.225Z,53.07
2019-04-01T06:09:46.692Z,53.10
2019-04-01T06:12:15.160Z,53.03
2019-04-01T06:14:43.623Z,53.11
2019-04-01T06:17:12.162Z,53.16
2019-04-01T06:19:40.555Z,53.00
2019-04-01T06:22:09.130Z,52.93
2019-04-01T06:24:37.583Z,52.78
2019-04-01T06:27:06.113Z,52.57
2019-04-01T06:29:34.558Z,52.49
2019-04-01T06:32:03.039Z,52.21
2019-04-01T06:34:31.530Z,52.13
2019-04-01T06:37:00.317Z,51.96
2019-04-01T06:39:28.812Z,51.85
2019-04-01T06:41:57.280Z,51.73
2019-04-01T06:44:25.771Z,51.51
2019-04-01T06:46:54.251Z,51.44
2019-04-01T06:49:22.781Z,51.21
2019-04-01T06:51:51.237Z,51.06
2019-04-01T06:54:19.705Z,51.08
2019-04-01T06:56:48.168Z,50.81
2019-04-01T06:59:16.625Z,50.70
2019-04-01T07:01:45.080Z,50.42
2019-04-01T07:04:13.576Z,50.05
2019-04-01T07:06:42.043Z,49.84
2019-04-01T07:09:10.788Z,49.61
2019-04-01T07:11:39.314Z,49.43
2019-04-01T07:14:08.038Z,49.22
2019-04-01T07:16:39.906Z,48.95
2019-04-01T07:19:06.995Z,48.70
2019-04-01T07:21:35.735Z,48.47
2019-04-01T07:24:04.179Z,48.26
2019-04-01T07:26:32.648Z,48.14
2019-04-01T07:29:01.133Z,47.89
2019-04-01T07:31:29.596Z,47.76
2019-04-01T07:33:58.044Z,47.66
2019-04-01T07:36:26.480Z,47.37
2019-04-01T07:38:55.004Z,47.40
2019-04-01T07:41:23.498Z,47.13
2019-04-01T07:43:51.970Z,47.14
2019-04-01T07:46:20.400Z,47.16
2019-04-01T07:48:48.906Z,47.34
2019-04-01T07:51:17.395Z,47.24
2019-04-01T07:53:45.869Z,47.04
2019-04-01T07:56:14.571Z,46.71
2019-04-01T07:58:43.039Z,46.45
2019-04-01T08:01:11.544Z,46.29
2019-04-01T08:03:41.896Z,46.08
2019-04-01T08:06:10.529Z,45.88
2019-04-01T08:08:39.001Z,45.82
2019-04-01T08:11:07.468Z,45.75
2019-04-01T08:13:35.961Z,45.24
2019-04-01T08:16:04.426Z,45.34
2019-04-01T08:18:34.131Z,44.77
2019-04-01T08:21:02.731Z,44.95
2019-04-01T08:23:31.222Z,44.75
2019-04-01T08:25:59.675Z,44.61
2019-04-01T08:28:28.160Z,44.42
2019-04-01T08:30:56.621Z,42.99
2019-04-01T08:33:25.166Z,44.06
2019-04-01T08:35:53.949Z,43.33
2019-04-01T08:38:22.736Z,43.62
2019-04-01T08:40:51.505Z,43.51
2019-04-01T08:43:19.958Z,47.82
2019-04-01T08:45:48.427Z,43.59
2019-04-01T08:48:16.892Z,43.14
2019-04-01T08:50:45.505Z,43.05
2019-04-01T08:53:14.258Z,42.94
2019-04-01T08:55:42.746Z,42.72
2019-04-01T08:58:11.205Z,42.54
2019-04-01T09:00:39.782Z,42.44
2019-04-01T09:03:08.256Z,42.36
2019-04-01T09:05:36.719Z,42.67
2019-04-01T09:08:05.261Z,42.55
2019-04-01T09:10:33.741Z,42.13
2019-04-01T09:13:02.190Z,42.12
2019-04-01T09:15:30.668Z,41.97
2019-04-01T09:17:59.426Z,41.89
2019-04-01T09:20:27.895Z,40.62
2019-04-01T09:22:59.268Z,42.09
2019-04-01T09:25:26.808Z,41.73
2019-04-01T09:27:55.641Z,41.30
2019-04-01T09:30:24.126Z,40.78
2019-04-01T09:32:52.916Z,41.31
2019-04-01T09:35:21.414Z,41.07
2019-04-01T09:37:49.872Z,40.65
2019-04-01T09:40:18.652Z,41.00
2019-04-01T09:42:47.104Z,40.94
2019-04-01T09:45:15.587Z,40.67
2019-04-01T09:47:44.154Z,40.35
2019-04-01T09:50:12.641Z,40.35
2019-04-01T09:52:41.094Z,40.53
2019-04-01T09:55:09.597Z,40.15
2019-04-01T09:57:38.370Z,40.05
2019-04-01T10:00:07.193Z,40.21
2019-04-01T10:02:35.878Z,39.88
2019-04-01T10:05:04.900Z,39.90
2019-04-01T10:07:33.437Z,39.76
2019-04-01T10:10:01.838Z,40.00
2019-04-01T10:12:30.316Z,39.40
2019-04-01T10:14:58.764Z,39.54
2019-04-01T10:17:27.240Z,50.56
2019-04-01T10:19:55.706Z,44.06
2019-04-01T10:22:24.200Z,41.17
2019-04-01T10:24:52.696Z,41.36
2019-04-01T10:27:21.429Z,40.24
2019-04-01T10:29:49.881Z,40.39
2019-04-01T10:32:18.339Z,40.73
2019-04-01T10:34:46.793Z,40.45
2019-04-01T10:37:15.257Z,40.16
2019-04-01T10:39:43.734Z,42.51
2019-04-01T10:42:12.201Z,41.49
2019-04-01T10:44:40.677Z,40.53
2019-04-01T10:47:09.200Z,39.95
2019-04-01T10:49:37.700Z,39.39
2019-04-01T10:52:06.224Z,39.55
2019-04-01T10:54:34.728Z,39.86
2019-04-01T10:57:03.374Z,42.41
2019-04-01T10:59:31.798Z,40.58
2019-04-01T11:02:00.266Z,41.00
2019-04-01T11:04:29.114Z,39.36
2019-04-01T11:06:57.988Z,41.29
2019-04-01T11:09:37.671Z,42.51
2019-04-01T11:11:56.708Z,42.19
2019-04-01T11:14:25.187Z,42.27
2019-04-01T11:16:54.071Z,41.83
2019-04-01T11:19:22.598Z,41.50
2019-04-01T11:21:51.615Z,41.20
2019-04-01T11:24:20.067Z,40.85
2019-04-01T11:26:48.548Z,40.67
2019-04-01T11:29:17.274Z,40.36
2019-04-01T11:31:45.776Z,39.88
2019-04-01T11:34:14.353Z,40.03
2019-04-01T11:36:43.293Z,39.68
2019-04-01T11:39:12.692Z,39.37
2019-04-01T11:41:41.141Z,39.42
2019-04-01T11:44:09.737Z,39.70
2019-04-01T11:46:38.373Z,39.35
2019-04-01T11:49:06.786Z,38.01
2019-04-01T11:51:39.788Z,38.85
2019-04-01T11:54:08.155Z,38.38
2019-04-01T11:56:35.692Z,38.02
2019-04-01T11:59:04.178Z,36.11
2019-04-01T12:01:32.868Z,36.91
2019-04-01T12:04:01.340Z,36.28
2019-04-01T12:06:29.822Z,35.83
2019-04-01T12:08:59.010Z,35.76
2019-04-01T12:11:27.672Z,35.83
2019-04-01T12:13:56.935Z,35.04
2019-04-01T12:16:25.778Z,34.51
2019-04-01T12:18:54.239Z,34.17
2019-04-01T12:21:22.772Z,34.02
2019-04-01T12:23:51.250Z,33.67
2019-04-01T12:26:19.790Z,34.07
2019-04-01T12:28:48.259Z,33.74
2019-04-01T12:31:17.012Z,33.23
2019-04-01T12:33:45.469Z,33.22
2019-04-01T12:36:13.942Z,31.75
2019-04-01T12:38:42.705Z,33.36
2019-04-01T12:41:11.172Z,32.94
2019-04-01T12:43:39.643Z,31.84
2019-04-01T12:46:08.792Z,31.06
2019-04-01T12:48:38.159Z,30.76
2019-04-01T12:51:06.630Z,30.86
2019-04-01T12:53:35.084Z,32.17
2019-04-01T12:56:03.563Z,30.60
2019-04-01T12:58:32.056Z,30.11
2019-04-01T13:01:01.136Z,30.82
2019-04-01T13:03:29.859Z,30.26
2019-04-01T13:05:58.340Z,29.16
2019-04-01T13:08:26.853Z,29.83
2019-04-01T13:10:56.652Z,29.92
2019-04-01T13:13:25.392Z,29.59
2019-04-01T13:15:53.843Z,29.00
2019-04-01T13:18:22.421Z,28.07
2019-04-01T13:20:51.975Z,28.11
2019-04-01T13:23:20.745Z,27.69
2019-04-01T13:25:49.196Z,27.35
2019-04-01T13:28:17.697Z,26.12
2019-04-01T13:30:46.169Z,26.98
2019-04-01T13:33:14.636Z,27.21
2019-04-01T13:35:43.132Z,27.27
2019-04-01T13:38:11.704Z,27.18
2019-04-01T13:40:40.511Z,26.56
2019-04-01T13:43:08.989Z,26.22
2019-04-01T13:45:37.449Z,25.84
2019-04-01T13:48:05.928Z,26.28
2019-04-01T13:50:34.385Z,25.75
2019-04-01T13:53:02.858Z,25.31
2019-04-01T13:55:31.354Z,25.21
2019-04-01T13:57:59.804Z,25.92
2019-04-01T14:00:28.368Z,25.68
2019-04-01T14:02:57.215Z,25.19
2019-04-01T14:05:26.329Z,24.92
2019-04-01T14:07:54.803Z,25.55
2019-04-01T14:10:24.054Z,25.27
2019-04-01T14:12:53.336Z,25.05
2019-04-01T14:15:22.020Z,24.80
2019-04-01T14:17:50.605Z,24.39
2019-04-01T14:20:19.099Z,24.04
2019-04-01T14:22:48.996Z,24.30
2019-04-01T14:25:17.512Z,24.05
2019-04-01T14:27:46.000Z,25.86
2019-04-01T14:30:14.860Z,25.32
2019-04-01T14:32:43.368Z,25.75
2019-04-01T14:35:11.852Z,25.75
2019-04-01T14:37:40.341Z,24.87
2019-04-01T14:40:09.171Z,24.73
2019-04-01T14:42:39.622Z,24.26
2019-04-01T14:45:08.501Z,24.01
2019-04-01T14:47:50.001Z,24.03
2019-04-01T14:50:07.802Z,23.99
2019-04-01T14:52:36.547Z,23.87
2019-04-01T14:55:05.110Z,24.44
2019-04-01T14:57:33.612Z,24.53
2019-04-01T15:00:02.090Z,24.54
2019-04-01T15:02:30.561Z,24.30
2019-04-01T15:04:59.048Z,23.97
2019-04-01T15:07:27.536Z,23.75
2019-04-01T15:09:55.983Z,27.42
2019-04-01T15:12:24.794Z,29.35
2019-04-01T15:14:53.265Z,28.31
2019-04-01T15:17:21.763Z,27.51
2019-04-01T15:19:50.258Z,26.83
2019-04-01T15:22:18.737Z,26.92
2019-04-01T15:24:47.189Z,26.86
2019-04-01T15:27:15.749Z,26.83
2019-04-01T15:29:44.210Z,26.54
2019-04-01T15:32:12.709Z,26.21
2019-04-01T15:34:41.157Z,26.05
2019-04-01T15:37:09.617Z,25.82
2019-04-01T15:39:38.073Z,25.54
2019-04-01T15:42:06.600Z,25.61
2019-04-01T15:44:35.091Z,25.67
2019-04-01T15:47:04.652Z,25.63
2019-04-01T15:49:33.258Z,25.47
2019-04-01T15:52:01.796Z,25.28
2019-04-01T15:54:30.257Z,25.25
2019-04-01T15:56:58.725Z,25.36
2019-04-01T15:59:27.279Z,25.39
2019-04-01T16:01:55.849Z,25.31
2019-04-01T16:04:24.632Z,25.11
2019-04-01T16:06:53.119Z,25.09
2019-04-01T16:09:23.060Z,25.23
2019-04-01T16:11:54.129Z,25.13
2019-04-01T16:14:21.872Z,25.54
2019-04-01T16:16:50.919Z,24.98
2019-04-01T16:19:19.402Z,26.33
2019-04-01T16:21:47.854Z,25.62
2019-04-01T16:24:16.617Z,25.25
2019-04-01T16:26:45.373Z,25.13
2019-04-01T16:29:14.148Z,25.43
2019-04-01T16:31:42.625Z,25.69
2019-04-01T16:34:11.096Z,25.62
2019-04-01T16:36:39.577Z,24.48
2019-04-01T16:39:09.312Z,24.61
2019-04-01T16:41:37.728Z,25.14
2019-04-01T16:44:06.239Z,25.02
2019-04-01T16:46:35.054Z,24.88
2019-04-01T16:49:03.532Z,24.83
2019-04-01T16:51:32.322Z,24.93
2019-04-01T16:54:00.740Z,25.35
2019-04-01T16:56:29.249Z,25.67
2019-04-01T16:58:57.724Z,25.62
2019-04-01T17:01:26.232Z,25.77
2019-04-01T17:03:54.706Z,26.54
2019-04-01T17:06:23.164Z,26.62
2019-04-01T17:08:51.646Z,26.70
2019-04-01T17:11:20.329Z,26.61
2019-04-01T17:13:48.823Z,26.82
2019-04-01T17:16:17.310Z,26.71
2019-04-01T17:18:45.768Z,26.73
2019-04-01T17:21:14.262Z,26.77
2019-04-01T17:23:42.979Z,26.92
2019-04-01T17:26:11.459Z,26.92
2019-04-01T17:28:39.948Z,26.92
2019-04-01T17:31:08.406Z,27.00
2019-04-01T17:33:36.871Z,27.08
2019-04-01T17:36:05.354Z,27.07
2019-04-01T17:38:33.825Z,27.32
2019-04-01T17:41:02.572Z,27.21
2019-04-01T17:43:31.063Z,27.52
2019-04-01T17:45:59.629Z,27.47
2019-04-01T17:48:28.096Z,27.49
2019-04-01T17:50:58.007Z,27.65
2019-04-01T17:53:26.880Z,27.64
2019-04-01T17:55:55.357Z,27.55
2019-04-01T17:58:23.837Z,31.85
2019-04-01T18:00:55.772Z,27.73
2019-04-01T18:03:24.235Z,27.52
2019-04-01T18:05:52.700Z,27.78
2019-04-01T18:08:21.411Z,27.89
2019-04-01T18:10:50.119Z,28.08
2019-04-01T18:13:18.709Z,28.27
2019-04-01T18:15:47.200Z,28.22
2019-04-01T18:18:26.169Z,28.16
2019-04-01T18:20:45.866Z,28.26
2019-04-01T18:23:14.696Z,28.38
2019-04-01T18:25:43.609Z,28.42
2019-04-01T18:28:12.895Z,28.33
2019-04-01T18:30:41.531Z,28.46
2019-04-01T18:33:10.028Z,28.55
2019-04-01T18:35:38.497Z,28.69
2019-04-01T18:38:07.105Z,28.77
2019-04-01T18:40:36.060Z,28.71
2019-04-01T18:43:04.532Z,28.87
2019-04-01T18:45:32.989Z,28.92
2019-04-01T18:48:01.479Z,28.92
2019-04-01T18:50:29.933Z,28.90
2019-04-01T18:52:58.400Z,28.98
2019-04-01T18:55:26.868Z,28.97
2019-04-01T18:57:56.484Z,29.08
2019-04-01T19:00:25.296Z,29.21
2019-04-01T19:02:55.563Z,29.21
2019-04-01T19:05:24.172Z,29.27
2019-04-01T19:07:52.623Z,29.39
2019-04-01T19:10:21.734Z,29.44
2019-04-01T19:12:50.221Z,29.55
2019-04-01T19:15:18.676Z,29.64
2019-04-01T19:17:47.126Z,29.72
2019-04-01T19:20:15.618Z,29.77
2019-04-01T19:22:44.083Z,29.90
2019-04-01T19:25:12.548Z,29.96
2019-04-01T19:27:41.015Z,30.04
2019-04-01T19:30:09.964Z,30.12
2019-04-01T19:32:38.915Z,30.23
2019-04-01T19:35:09.427Z,30.23
2019-04-01T19:37:37.694Z,30.33
2019-04-01T19:40:06.171Z,30.40
2019-04-01T19:42:34.647Z,30.56
2019-04-01T19:45:03.311Z,30.59
2019-04-01T19:47:31.813Z,30.69
2019-04-01T19:50:02.052Z,30.83
2019-04-01T19:52:30.636Z,30.78
2019-04-01T19:54:59.297Z,30.81
2019-04-01T19:57:28.130Z,30.92
2019-04-01T19:59:56.885Z,30.97
2019-04-01T20:02:25.395Z,31.12
2019-04-01T20:04:54.845Z,31.15
2019-04-01T20:07:23.276Z,31.12
2019-04-01T20:09:51.749Z,31.21
2019-04-01T20:12:20.486Z,31.29
2019-04-01T20:14:49.269Z,31.31
2019-04-01T20:17:17.732Z,31.42
2019-04-01T20:19:46.224Z,31.49
2019-04-01T20:22:14.756Z,31.50
2019-04-01T20:24:43.267Z,31.53
2019-04-01T20:27:11.735Z,31.66
2019-04-01T20:29:40.589Z,31.66
2019-04-01T20:32:17.180Z,31.77
2019-04-01T20:34:39.257Z,31.79
2019-04-01T20:37:07.756Z,31.80
2019-04-01T20:39:36.270Z,31.96
2019-04-01T20:42:07.192Z,32.11
2019-04-01T20:44:35.178Z,32.15
2019-04-01T20:47:03.688Z,32.25
2019-04-01T20:49:32.199Z,32.21
2019-04-01T20:52:00.661Z,32.35
2019-04-01T20:54:29.131Z,32.39
2019-04-01T20:56:57.593Z,32.48
2019-04-01T20:59:26.085Z,32.46
2019-04-01T21:01:54.557Z,32.44
2019-04-01T21:04:23.049Z,32.52
2019-04-01T21:06:51.502Z,32.61
2019-04-01T21:09:19.982Z,32.78
2019-04-01T21:11:48.451Z,32.80
2019-04-01T21:14:16.946Z,32.74
2019-04-01T21:16:45.415Z,32.78
2019-04-01T21:19:13.891Z,32.91
2019-04-01T21:21:42.360Z,32.89
2019-04-01T21:24:11.128Z,32.92
2019-04-01T21:26:39.600Z,32.83
2019-04-01T21:29:08.085Z,32.93
2019-04-01T21:31:36.602Z,33.03
2019-04-01T21:34:07.682Z,33.06
2019-04-01T21:36:35.245Z,33.09
2019-04-01T21:39:06.713Z,33.14
2019-04-01T21:41:35.176Z,33.18
2019-04-01T21:44:03.658Z,33.28
2019-04-01T21:46:32.216Z,33.37
2019-04-01T21:49:00.716Z,33.42
2019-04-01T21:51:29.181Z,33.48
2019-04-01T21:53:57.641Z,33.56
2019-04-01T21:56:26.441Z,33.65
2019-04-01T21:58:55.216Z,33.67
2019-04-01T22:01:23.929Z,33.78
2019-04-01T22:03:55.272Z,33.93
2019-04-01T22:06:22.595Z,33.97
2019-04-01T22:08:51.034Z,34.06
2019-04-01T22:11:19.512Z,34.02
2019-04-01T22:13:48.277Z,34.11
2019-04-01T22:16:16.772Z,34.09
2019-04-01T22:18:45.245Z,34.15
2019-04-01T22:21:13.719Z,34.27
2019-04-01T22:23:42.168Z,34.28
2019-04-01T22:26:10.667Z,34.33
2019-04-01T22:28:39.130Z,34.49
2019-04-01T22:31:07.899Z,34.49
2019-04-01T22:33:36.370Z,34.68
2019-04-01T22:36:04.840Z,34.57
2019-04-01T22:38:34.098Z,34.55
2019-04-01T22:41:03.610Z,34.62
2019-04-01T22:43:32.079Z,34.56
2019-04-01T22:46:00.563Z,34.59
2019-04-01T22:48:29.031Z,34.70
2019-04-01T22:50:57.865Z,34.74
2019-04-01T22:53:26.436Z,34.69
2019-04-01T22:55:54.903Z,34.81
2019-04-01T22:58:23.377Z,34.92
2019-04-01T23:00:51.861Z,35.02
2019-04-01T23:03:20.333Z,34.97
2019-04-01T23:05:48.784Z,35.05
2019-04-01T23:08:17.252Z,35.06
2019-04-01T23:10:45.684Z,35.09
2019-04-01T23:13:14.164Z,35.15
2019-04-01T23:15:43.163Z,35.23
2019-04-01T23:18:12.623Z,35.33
2019-04-01T23:20:41.107Z,35.37
2019-04-01T23:23:09.589Z,35.12
2019-04-01T23:25:38.035Z,35.15
2019-04-01T23:28:06.493Z,35.29
2019-04-01T23:30:34.978Z,35.37
2019-04-01T23:33:03.459Z,35.43
2019-04-01T23:35:32.003Z,35.54
2019-04-01T23:38:00.447Z,35.49
2019-04-01T23:40:28.942Z,35.42
2019-04-01T23:42:57.671Z,35.52
2019-04-01T23:45:26.476Z,35.53
2019-04-01T23:47:54.949Z,35.55
2019-04-01T23:50:23.423Z,35.55
2019-04-01T23:52:51.890Z,35.57
2019-04-01T23:55:20.631Z,35.60
2019-04-01T23:57:49.104Z,35.72
